createdAt,value
2023-01-11T00:05:16.981Z,1006.53
2023-01-11T00:11:40.041Z,1006.41
2023-01-11T00:18:00.058Z,1006.37
2023-01-11T00:24:23.037Z,1006.35
2023-01-11T00:30:42.995Z,1006.35
2023-01-11T00:37:06.008Z,1006.39
2023-01-11T00:43:26.001Z,1006.29
2023-01-11T00:49:48.996Z,1006.14
2023-01-11T00:56:08.997Z,1006.02
2023-01-11T01:02:32.107Z,1005.86
2023-01-11T01:08:51.969Z,1005.8
2023-01-11T01:15:15.062Z,1005.76
2023-01-11T01:21:35.037Z,1005.69
2023-01-11T01:27:58.028Z,1005.67
2023-01-11T01:34:18.003Z,1005.65
2023-01-11T01:40:41.021Z,1005.67
2023-01-11T01:47:00.974Z,1005.65
2023-01-11T01:53:24.008Z,1005.67
2023-01-11T01:59:44.011Z,1005.65
2023-01-11T02:06:07.017Z,1005.59
2023-01-11T02:12:29.397Z,1005.53
2023-01-11T02:18:49.982Z,1005.4
2023-01-11T02:25:09.970Z,1005.34
2023-01-11T02:31:33.076Z,1005.21
2023-01-11T02:37:53.000Z,1005.17
2023-01-11T02:44:16.022Z,1005.07
2023-01-11T02:50:36.012Z,1005.01
2023-01-11T02:56:59.033Z,1004.95
2023-01-11T03:03:19.000Z,1004.9
2023-01-11T03:09:42.018Z,1004.86
2023-01-11T03:16:02.064Z,1004.72
2023-01-11T03:22:25.005Z,1004.6
2023-01-11T03:28:44.998Z,1004.5
2023-01-11T03:35:08.008Z,1004.41
2023-01-11T03:41:28.002Z,1004.39
2023-01-11T03:47:51.069Z,1004.39
2023-01-11T03:54:10.973Z,1004.33
2023-01-11T04:00:34.087Z,1004.35
2023-01-11T04:06:54.112Z,1004.27
2023-01-11T04:13:16.987Z,1004.15
2023-01-11T04:19:36.990Z,1004.09
2023-01-11T04:41:32.019Z,1004.01
2023-01-11T04:47:55.000Z,1004.01
2023-01-11T04:54:14.976Z,1004
2023-01-11T05:00:38.018Z,1004
2023-01-11T05:06:58.042Z,1003.96
2023-01-11T05:13:21.006Z,1003.94
2023-01-11T05:19:41.033Z,1003.86
2023-01-11T05:26:04.012Z,1003.86
2023-01-11T05:32:23.991Z,1003.86
2023-01-11T05:38:47.011Z,1003.82
2023-01-11T05:45:06.995Z,1003.78
2023-01-11T05:51:29.988Z,1003.7
2023-01-11T05:57:50.030Z,1003.66
2023-01-11T06:04:12.974Z,1003.6
2023-01-11T06:10:33.000Z,1003.58
2023-01-11T06:16:56.127Z,1003.51
2023-01-11T06:23:15.984Z,1003.49
2023-01-11T06:29:38.988Z,1003.43
2023-01-11T06:35:59.007Z,1003.43
2023-01-11T06:42:22.025Z,1003.45
2023-01-11T06:48:41.976Z,1003.45
2023-01-11T06:55:05.030Z,1003.47
2023-01-11T07:01:25.159Z,1003.49
2023-01-11T07:07:48.038Z,1003.56
2023-01-11T07:14:08.036Z,1003.64
2023-01-11T07:20:31.092Z,1003.62
2023-01-11T07:26:50.979Z,1003.74
2023-01-11T07:33:14.068Z,1003.78
2023-01-11T07:39:43.086Z,1003.86
2023-01-11T07:45:57.080Z,1003.96
2023-01-11T07:52:17.108Z,1004.03
2023-01-11T07:58:40.002Z,1004.15
2023-01-11T08:05:01.691Z,1004.31
2023-01-11T08:11:23.011Z,1004.43
2023-01-11T08:17:43.014Z,1004.54
2023-01-11T08:24:06.000Z,1004.62
2023-01-11T08:30:26.044Z,1004.7
2023-01-11T08:36:49.003Z,1004.74
2023-01-11T08:43:08.989Z,1004.84
2023-01-11T08:49:32.036Z,1004.9
2023-01-11T08:55:51.981Z,1004.95
2023-01-11T09:02:14.988Z,1005.03
2023-01-11T09:08:35.020Z,1005.11
2023-01-11T09:14:58.006Z,1005.19
2023-01-11T09:21:18.049Z,1005.25
2023-01-11T09:27:41.033Z,1005.29
2023-01-11T09:34:00.980Z,1005.29
2023-01-11T09:40:24.021Z,1005.31
2023-01-11T09:46:44.056Z,1005.31
2023-01-11T10:18:21.486Z,1005.61
2023-01-11T10:22:51.040Z,1005.71
2023-01-11T10:29:14.185Z,1005.8
2023-01-11T10:35:34.024Z,1005.84
2023-01-11T10:41:57.006Z,1006.04
2023-01-11T10:48:17.030Z,1006.18
2023-01-11T10:54:40.013Z,1006.25
2023-01-11T11:01:00.094Z,1006.19
2023-01-11T11:07:23.120Z,1006.16
2023-01-11T11:13:43.479Z,1006.16
2023-01-11T11:20:06.105Z,1006.25
2023-01-11T11:26:26.041Z,1006.27
2023-01-11T11:32:48.986Z,1006.35
2023-01-11T11:39:08.979Z,1006.41
2023-01-11T11:45:32.195Z,1006.49
2023-01-11T11:51:52.008Z,1006.53
2023-01-11T11:58:15.009Z,1006.61
2023-01-11T12:04:35.089Z,1006.59
2023-01-11T12:10:58.022Z,1006.63
2023-01-11T12:17:18.002Z,1006.61
2023-01-11T12:23:41.022Z,1006.57
2023-01-11T12:30:01.033Z,1006.55
2023-01-11T12:36:24.000Z,1006.59
2023-01-11T12:42:44.033Z,1006.66
2023-01-11T12:49:07.041Z,1006.76
2023-01-11T12:55:26.999Z,1006.86
2023-01-11T13:01:50.116Z,1006.92
2023-01-11T13:08:10.049Z,1006.92
2023-01-11T13:14:32.988Z,1007
2023-01-11T13:21:01.013Z,1007.04
2023-01-11T13:27:16.103Z,1007.02
2023-01-11T13:33:36.019Z,1007.12
2023-01-11T13:39:59.048Z,1007.13
2023-01-11T13:46:19.027Z,1007.19
2023-01-11T13:52:42.050Z,1007.21
2023-01-11T13:59:02.011Z,1007.21
2023-01-11T14:05:25.020Z,1007.29
2023-01-11T14:11:45.007Z,1007.31
2023-01-11T14:18:08.029Z,1007.39
2023-01-11T14:24:28.030Z,1007.47
2023-01-11T14:30:51.256Z,1007.56
2023-01-11T14:37:11.080Z,1007.64
2023-01-11T14:43:34.006Z,1007.64
2023-01-11T14:49:54.001Z,1007.74
2023-01-11T14:56:17.050Z,1007.8
2023-01-11T15:02:36.991Z,1007.84
2023-01-11T15:09:00.047Z,1007.82
2023-01-11T15:31:48.605Z,1007.96
2023-01-11T15:38:09.321Z,1007.98
2023-01-11T15:44:32.111Z,1007.98
2023-01-11T15:50:52.004Z,1008.06
2023-01-11T15:57:15.003Z,1008.14
2023-01-11T16:03:35.054Z,1008.26
2023-01-11T16:09:58.012Z,1008.37
2023-01-11T16:16:18.065Z,1008.45
2023-01-11T16:22:41.012Z,1008.53
2023-01-11T16:29:01.049Z,1008.57
2023-01-11T16:35:24.026Z,1008.61
2023-01-11T16:41:43.983Z,1008.67
2023-01-11T16:48:07.286Z,1008.77
2023-01-11T16:54:27.006Z,1008.79
2023-01-11T17:00:50.032Z,1008.79
2023-01-11T17:07:10.005Z,1008.86
2023-01-11T17:13:33.016Z,1008.96
2023-01-11T17:19:53.025Z,1009.12
2023-01-11T17:26:16.001Z,1009.26
2023-01-11T17:32:36.161Z,1009.37
2023-01-11T17:38:59.206Z,1009.53
2023-01-11T17:45:20.771Z,1009.73
2023-01-11T17:51:42.005Z,1009.82
2023-01-11T17:58:02.025Z,1009.82
2023-01-11T18:04:25.060Z,1009.78
2023-01-11T18:10:44.995Z,1009.73
2023-01-11T18:17:08.060Z,1009.75
2023-01-11T18:23:28.056Z,1009.73
2023-01-11T18:29:50.979Z,1009.69
2023-01-11T18:36:10.987Z,1009.73
2023-01-11T18:42:34.066Z,1009.8
2023-01-11T18:48:54.019Z,1009.82
2023-01-11T18:55:17.002Z,1009.8
2023-01-11T19:01:51.592Z,1009.84
2023-01-11T19:08:00.014Z,1009.82
2023-01-11T19:14:19.993Z,1009.8
2023-01-11T19:20:43.062Z,1009.8
2023-01-11T19:27:03.065Z,1009.77
2023-01-11T19:33:26.376Z,1009.69
2023-01-11T19:39:46.130Z,1009.61
2023-01-11T19:46:11.386Z,1009.53
2023-01-11T19:52:28.997Z,1009.41
2023-01-11T19:58:52.225Z,1009.43
2023-01-11T20:05:12.236Z,1009.35
2023-01-11T20:11:35.032Z,1009.31
2023-01-11T20:17:55.076Z,1009.28
2023-01-11T20:40:43.322Z,1009.24
2023-01-11T20:47:06.070Z,1009.18
2023-01-11T20:53:26.051Z,1009.22
2023-01-11T20:59:49.176Z,1009.18
2023-01-11T21:06:09.026Z,1009.08
2023-01-11T21:12:32.005Z,1009.04
2023-01-11T21:18:51.031Z,1008.94
2023-01-11T21:25:14.019Z,1008.84
2023-01-11T21:31:34.074Z,1008.88
2023-01-11T21:37:57.080Z,1008.86
2023-01-11T21:44:17.031Z,1008.81
2023-01-11T21:50:40.026Z,1008.83
2023-01-11T21:57:00.102Z,1008.83
2023-01-11T22:03:23.000Z,1008.75
2023-01-11T22:09:59.799Z,1008.65
2023-01-11T22:16:06.062Z,1008.57
2023-01-11T22:22:25.996Z,1008.49
2023-01-11T22:28:48.996Z,1008.43
2023-01-11T22:35:09.026Z,1008.32
2023-01-11T22:41:31.990Z,1008.26
2023-01-11T22:47:51.980Z,1008.22
2023-01-11T22:54:15.023Z,1008.16
2023-01-11T23:19:47.000Z,1007.92
2023-01-11T23:26:06.970Z,1007.88
2023-01-11T23:32:29.992Z,1007.78
2023-01-11T23:38:50.151Z,1007.74
2023-01-11T23:45:12.975Z,1007.72
2023-01-11T23:51:32.979Z,1007.74
2023-01-11T23:57:56.016Z,1007.7
